YAYE/AYQ METAR and TAF weather

Enter ICAO airport designator
Station Type Date Time Source
YAYE METAR 2019/12/09 00:30 UTC NOAA

YAYE 090030Z AUTO 14019G29KT 9999 // BKN026 OVC033 34/08 Q1015


Station Type Date Time Source
YAYE Decoded METAR 2019/12/09 00:30 UTC NOAA

Ayers Rock, Australia (YAYE) 25-11S 130-58E
Dec 08, 2019 - 07:30 PM EST / 2019.12.09 0030 UTC
Wind: from the SE (140 degrees) at 22 MPH (19 KT) gusting to 33 MPH (29 KT):0
Visibility: greater than 7 mile(s):0
Sky conditions: overcast
Temperature: 93 F (34 C)
Dew Point: 46 F (8 C)
Relative Humidity: 20%
Pressure (altimeter): 29.97 in. Hg (1015 hPa)
ob: YAYE 090030Z AUTO 14019G29KT 9999 // BKN026 OVC033 34/08 Q1015
cycle: 0

Station Type Date Time Source
YAYE TAF UTC NOAA

Error!

Example: see airport list